LFBG/CNG METAR and TAF weather

Enter ICAO airport designator
Station Type Date Time Source
LFBG METAR 2019/02/17 16:00 UTC NOAA

LFBG 171600Z AUTO 19008KT CAVOK 19/01 Q1019


Station Type Date Time Source
LFBG Decoded METAR 2019/02/17 16:00 UTC NOAA

Cognac, France (LFBG) 45-40N 000-19W 31M
Feb 17, 2019 - 11:00 AM EST / 2019.02.17 1600 UTC
Wind: from the S (190 degrees) at 9 MPH (8 KT):0
Visibility: greater than 7 mile(s):0
Temperature: 66 F (19 C)
Dew Point: 33 F (1 C)
Relative Humidity: 29%
Pressure (altimeter): 30.09 in. Hg (1019 hPa)
ob: LFBG 171600Z AUTO 19008KT CAVOK 19/01 Q1019
cycle: 16

Station Type Date Time Source
LFBG TAF 2019/02/15 15:48 UTC NOAA

TAF TAF LFBG 151400Z 1515/1615 14007KT CAVOK


Example: see airport list